createdAt,value
2018-06-19T00:00:26.642Z,55907.20
2018-06-19T00:02:56.157Z,55952.44
2018-06-19T00:05:30.207Z,55957.58
2018-06-19T00:08:01.668Z,55959.63
2018-06-19T00:10:31.815Z,55970.95
2018-06-19T00:13:01.291Z,55952.44
2018-06-19T00:15:30.851Z,55935.98
2018-06-19T00:18:06.250Z,55940.10
2018-06-19T00:20:35.696Z,55942.16
2018-06-19T00:23:05.364Z,55957.58
2018-06-19T00:25:34.884Z,55940.10
2018-06-19T00:28:04.454Z,55943.18
2018-06-19T00:30:34.137Z,55949.35
2018-06-19T00:33:03.697Z,55969.92
2018-06-19T00:35:33.310Z,55989.45
2018-06-19T00:38:02.908Z,55948.32
2018-06-19T00:40:32.396Z,55977.11
2018-06-19T00:43:01.768Z,55947.30
2018-06-19T00:45:31.315Z,55956.55
2018-06-19T00:48:00.871Z,55952.44
2018-06-19T00:50:30.323Z,55970.95
2018-06-19T00:53:00.316Z,55962.72
2018-06-19T00:55:29.880Z,55970.95
2018-06-19T00:57:59.379Z,55961.69
2018-06-19T01:00:28.940Z,55968.89
2018-06-19T01:02:58.458Z,55945.24
2018-06-19T01:05:27.922Z,55975.06
2018-06-19T01:07:57.427Z,55946.27
2018-06-19T01:10:27.014Z,55966.83
2018-06-19T01:12:56.461Z,55964.78
2018-06-19T01:15:25.961Z,55970.95
2018-06-19T01:17:55.484Z,55940.10
2018-06-19T01:20:24.990Z,55934.96
2018-06-19T01:22:54.435Z,55983.28
2018-06-19T01:25:23.934Z,55973.00
2018-06-19T01:27:53.387Z,55940.10
2018-06-19T01:30:22.936Z,55951.41
2018-06-19T01:32:52.369Z,55951.41
2018-06-19T01:35:21.845Z,55943.18
2018-06-19T01:37:51.784Z,55954.49
2018-06-19T01:40:21.350Z,55957.58
2018-06-19T01:42:50.861Z,55954.49
2018-06-19T01:45:20.444Z,55971.97
2018-06-19T01:47:49.994Z,55960.66
2018-06-19T01:50:19.532Z,55955.52
2018-06-19T01:52:48.942Z,55977.11
2018-06-19T01:55:18.295Z,55941.13
2018-06-19T01:57:47.827Z,55937.01
2018-06-19T02:00:17.199Z,55949.35
2018-06-19T02:02:46.668Z,55946.27
2018-06-19T02:05:16.051Z,55997.68
2018-06-19T02:07:45.565Z,55958.61
2018-06-19T02:10:14.998Z,55960.66
2018-06-19T02:12:44.449Z,55977.11
2018-06-19T02:15:13.881Z,55980.20
2018-06-19T02:17:43.315Z,55989.45
2018-06-19T02:20:12.697Z,55958.61
2018-06-19T02:22:42.128Z,55959.63
2018-06-19T02:25:11.522Z,55948.32
2018-06-19T02:27:40.873Z,55934.96
2018-06-19T02:30:10.327Z,55948.32
2018-06-19T02:32:39.762Z,55984.31
2018-06-19T02:35:09.230Z,55975.06
2018-06-19T02:37:38.746Z,55967.86
2018-06-19T02:40:08.267Z,56004.87
2018-06-19T02:42:37.760Z,55939.07
2018-06-19T02:45:07.518Z,55969.92
2018-06-19T02:47:37.305Z,55975.06
2018-06-19T02:50:06.878Z,55984.31
2018-06-19T02:52:36.645Z,55994.59
2018-06-19T02:55:06.338Z,55960.66
2018-06-19T02:57:46.330Z,55982.25
2018-06-19T03:00:15.940Z,55990.48
2018-06-19T03:02:45.655Z,55989.45
2018-06-19T03:05:15.414Z,55962.72
2018-06-19T03:07:45.196Z,55954.49
2018-06-19T03:10:14.727Z,55993.57
2018-06-19T03:12:44.342Z,55971.97
2018-06-19T03:15:13.899Z,55945.24
2018-06-19T03:17:43.688Z,55985.34
2018-06-19T03:20:13.238Z,55968.89
2018-06-19T03:22:42.811Z,55966.83
2018-06-19T03:25:12.272Z,55934.96
2018-06-19T03:27:41.764Z,55971.97
2018-06-19T03:30:11.237Z,55946.27
2018-06-19T03:32:40.601Z,56002.82
2018-06-19T03:35:10.007Z,55984.31
2018-06-19T03:37:39.381Z,55985.34
2018-06-19T03:40:08.832Z,55996.65
2018-06-19T03:42:38.343Z,55973.00
2018-06-19T03:45:07.822Z,55960.66
2018-06-19T03:47:37.298Z,55995.62
2018-06-19T03:50:07.008Z,55989.45
2018-06-19T03:52:36.681Z,55975.06
2018-06-19T03:55:06.547Z,56000.76
2018-06-19T03:57:36.131Z,55970.95
2018-06-19T04:00:05.957Z,55956.55
2018-06-19T04:02:35.416Z,55977.11
2018-06-19T04:05:04.907Z,55951.41
2018-06-19T04:07:34.303Z,55988.43
2018-06-19T04:10:04.010Z,55976.09
2018-06-19T04:12:33.419Z,55976.09
2018-06-19T04:15:02.821Z,55964.78
2018-06-19T04:17:32.269Z,55981.23
2018-06-19T04:20:01.709Z,55976.09
2018-06-19T04:22:31.275Z,55945.24
2018-06-19T04:25:00.839Z,55978.14
2018-06-19T04:27:30.377Z,55960.66
2018-06-19T04:30:00.024Z,55951.41
2018-06-19T04:32:29.764Z,55987.40
2018-06-19T04:35:00.056Z,55966.83
2018-06-19T04:37:29.688Z,55957.58
2018-06-19T04:39:59.402Z,55949.35
2018-06-19T04:42:29.026Z,55979.17
2018-06-19T04:44:58.532Z,55979.17
2018-06-19T04:47:27.942Z,55975.06
2018-06-19T04:49:57.335Z,55968.89
2018-06-19T04:52:26.779Z,55981.23
2018-06-19T04:54:56.181Z,55968.89
2018-06-19T04:57:25.657Z,55956.55
2018-06-19T04:59:55.028Z,55983.28
2018-06-19T05:02:24.453Z,55962.72
2018-06-19T05:04:53.895Z,55953.46
2018-06-19T05:07:23.351Z,55947.30
2018-06-19T05:09:52.827Z,55980.20
2018-06-19T05:12:22.240Z,55982.25
2018-06-19T05:14:51.733Z,55968.89
2018-06-19T05:17:21.144Z,55958.61
2018-06-19T05:19:50.609Z,55976.09
2018-06-19T05:22:19.972Z,56000.76
2018-06-19T05:24:49.410Z,55954.49
2018-06-19T05:27:18.812Z,55994.59
2018-06-19T05:29:48.277Z,55957.58
2018-06-19T05:32:17.716Z,55923.65
2018-06-19T05:34:47.150Z,55955.52
2018-06-19T05:37:16.625Z,55958.61
2018-06-19T05:39:46.032Z,55965.80
2018-06-19T05:42:15.499Z,55964.78
2018-06-19T05:44:44.933Z,55926.73
2018-06-19T05:47:14.357Z,55945.24
2018-06-19T05:49:43.761Z,55927.76
2018-06-19T05:52:13.243Z,55823.91
2018-06-19T05:54:42.712Z,55742.69
2018-06-19T05:57:12.158Z,55770.45
2018-06-19T05:59:41.588Z,55782.79
2018-06-19T06:02:10.952Z,55754.00
2018-06-19T06:04:40.338Z,55741.66
2018-06-19T06:07:09.711Z,55722.12
2018-06-19T06:09:39.130Z,55699.51
2018-06-19T06:12:08.521Z,55694.36
2018-06-19T06:14:37.939Z,55684.08
2018-06-19T06:17:07.397Z,55694.36
2018-06-19T06:19:36.756Z,55705.68
2018-06-19T06:22:06.297Z,55673.80
2018-06-19T06:24:35.646Z,55673.80
2018-06-19T06:27:05.888Z,55667.63
2018-06-19T06:29:35.046Z,55654.27
2018-06-19T06:32:04.473Z,55693.34
2018-06-19T06:34:33.969Z,55686.14
2018-06-19T06:37:03.533Z,55691.28
2018-06-19T06:39:33.014Z,55668.66
2018-06-19T06:42:02.492Z,55658.38
2018-06-19T06:44:31.884Z,55694.36
2018-06-19T06:47:01.267Z,55723.15
2018-06-19T06:49:30.751Z,55738.57
2018-06-19T06:52:00.200Z,55709.79
2018-06-19T06:54:29.665Z,55697.45
2018-06-19T06:57:00.874Z,55744.74
2018-06-19T06:59:31.176Z,55804.38
2018-06-19T07:02:00.608Z,55875.32
2018-06-19T07:04:30.018Z,55891.77
2018-06-19T07:06:59.484Z,55910.28
2018-06-19T07:09:28.925Z,55905.14
2018-06-19T07:11:58.394Z,55925.70
2018-06-19T07:14:27.796Z,55867.10
2018-06-19T07:16:57.240Z,55906.17
2018-06-19T07:19:26.643Z,55927.76
2018-06-19T07:21:56.026Z,55916.45
2018-06-19T07:24:25.441Z,55944.21
2018-06-19T07:26:54.799Z,55922.62
2018-06-19T07:29:24.174Z,55935.98
2018-06-19T07:31:53.647Z,55958.61
2018-06-19T07:34:23.032Z,55893.83
2018-06-19T07:36:52.462Z,55905.14
2018-06-19T07:39:21.808Z,55907.20
2018-06-19T07:41:51.303Z,55907.20
2018-06-19T07:44:20.624Z,55901.03
2018-06-19T07:46:50.056Z,55907.20
2018-06-19T07:49:19.473Z,55901.03
2018-06-19T07:51:48.936Z,55891.77
2018-06-19T07:54:18.304Z,55901.03
2018-06-19T07:56:47.686Z,55901.03
2018-06-19T07:59:17.113Z,55921.59
2018-06-19T08:01:46.748Z,55896.91
2018-06-19T08:04:16.201Z,55911.31
2018-06-19T08:06:45.604Z,55940.10
2018-06-19T08:09:15.003Z,55919.54
2018-06-19T08:11:44.435Z,55923.65
2018-06-19T08:14:13.820Z,55908.23
2018-06-19T08:16:43.310Z,55902.05
2018-06-19T08:19:12.632Z,55894.86
2018-06-19T08:21:42.094Z,55884.57
2018-06-19T08:24:11.496Z,55937.01
2018-06-19T08:26:40.924Z,55915.42
2018-06-19T08:29:10.391Z,55908.23
2018-06-19T08:31:39.951Z,55894.86
2018-06-19T08:34:09.419Z,55910.28
2018-06-19T08:36:38.822Z,55905.14
2018-06-19T08:39:11.522Z,55907.20
2018-06-19T08:41:41.518Z,55898.97
2018-06-19T08:44:10.979Z,55883.55
2018-06-19T08:46:41.702Z,55878.41
2018-06-19T08:49:12.426Z,55894.86
2018-06-19T08:51:41.874Z,55912.34
2018-06-19T08:54:11.367Z,55892.80
2018-06-19T08:56:40.816Z,55888.69
2018-06-19T08:59:10.213Z,55887.66
2018-06-19T09:01:39.620Z,55870.18
2018-06-19T09:04:09.013Z,55877.38
2018-06-19T09:06:38.430Z,55880.46
2018-06-19T09:09:10.349Z,55886.63
2018-06-19T09:11:39.890Z,55894.86
2018-06-19T09:14:09.309Z,55868.12
2018-06-19T09:16:38.672Z,55907.20
2018-06-19T09:19:08.091Z,55901.03
2018-06-19T09:21:37.537Z,55874.29
2018-06-19T09:24:06.987Z,55895.89
2018-06-19T09:26:36.466Z,55893.83
2018-06-19T09:29:05.989Z,55905.14
2018-06-19T09:31:35.339Z,55905.14
2018-06-19T09:34:04.945Z,55895.89
2018-06-19T09:36:34.385Z,55877.38
2018-06-19T09:39:04.436Z,55919.54
2018-06-19T09:41:33.876Z,55882.52
2018-06-19T09:44:03.396Z,55924.68
2018-06-19T09:46:32.791Z,55900.00
2018-06-19T09:49:02.233Z,55876.35
2018-06-19T09:51:32.022Z,55891.77
2018-06-19T09:54:01.484Z,55900.00
2018-06-19T09:56:30.921Z,55896.91
2018-06-19T09:59:00.363Z,55901.03
2018-06-19T10:01:29.812Z,55909.25
2018-06-19T10:03:59.231Z,55906.17
2018-06-19T10:06:29.000Z,55917.48
2018-06-19T10:08:58.398Z,55922.62
2018-06-19T10:11:27.792Z,55890.75
2018-06-19T10:13:57.415Z,55894.86
2018-06-19T10:16:26.845Z,55910.28
2018-06-19T10:18:56.202Z,55905.14
2018-06-19T10:21:25.608Z,55895.89
2018-06-19T10:23:55.024Z,55891.77
2018-06-19T10:26:24.412Z,55879.43
2018-06-19T10:28:53.824Z,55882.52
2018-06-19T10:31:23.199Z,55891.77
2018-06-19T10:33:52.749Z,55919.54
2018-06-19T10:36:21.855Z,55890.75
2018-06-19T10:38:51.212Z,55888.69
2018-06-19T10:41:27.201Z,55861.95
2018-06-19T10:43:56.590Z,55866.07
2018-06-19T10:46:25.997Z,55874.29
2018-06-19T10:48:55.805Z,55900.00
2018-06-19T10:51:25.221Z,55875.32
2018-06-19T10:53:54.301Z,55883.55
2018-06-19T10:56:23.703Z,55903.08
2018-06-19T10:58:53.056Z,55876.35
2018-06-19T11:01:22.469Z,55889.72
2018-06-19T11:03:51.892Z,55875.32
2018-06-19T11:06:21.448Z,55895.89
2018-06-19T11:08:50.772Z,55875.32
2018-06-19T11:11:20.261Z,55891.77
2018-06-19T11:13:49.648Z,55882.52
2018-06-19T11:16:19.187Z,55891.77
2018-06-19T11:18:48.557Z,55894.86
2018-06-19T11:21:18.309Z,55894.86
2018-06-19T11:23:48.535Z,55925.70
2018-06-19T11:26:18.394Z,55871.21
2018-06-19T11:28:48.235Z,55897.94
2018-06-19T11:31:18.383Z,55870.18
2018-06-19T11:33:48.409Z,55907.20
2018-06-19T11:36:17.932Z,55894.86
2018-06-19T11:38:47.338Z,55878.41
2018-06-19T11:41:16.853Z,55877.38
2018-06-19T11:43:46.375Z,55852.70
2018-06-19T11:46:15.768Z,55898.97
2018-06-19T11:48:45.211Z,55866.07
2018-06-19T11:51:14.596Z,55871.21
2018-06-19T11:53:44.061Z,55888.69
2018-06-19T11:56:13.490Z,55885.61
2018-06-19T11:58:42.834Z,55907.20
2018-06-19T12:01:12.296Z,55890.75
2018-06-19T12:03:41.723Z,55879.43
2018-06-19T12:06:11.094Z,55908.23
2018-06-19T12:08:40.460Z,55902.05
2018-06-19T12:11:09.881Z,55881.49
2018-06-19T12:13:39.360Z,55896.91
2018-06-19T12:16:08.772Z,55907.20
2018-06-19T12:18:38.173Z,55881.49
2018-06-19T12:21:07.596Z,55896.91
2018-06-19T12:23:36.973Z,55906.17
2018-06-19T12:26:06.505Z,55875.32
2018-06-19T12:28:35.953Z,55876.35
2018-06-19T12:31:05.426Z,55892.80
2018-06-19T12:33:34.808Z,55938.04
2018-06-19T12:36:04.298Z,55891.77
2018-06-19T12:38:33.838Z,55903.08
2018-06-19T12:41:03.215Z,55887.66
2018-06-19T12:43:32.637Z,55886.63
2018-06-19T12:46:02.181Z,55871.21
2018-06-19T12:48:31.601Z,55901.03
2018-06-19T12:52:17.824Z,55890.75
2018-06-19T12:56:35.537Z,55874.29
2018-06-19T12:59:04.936Z,55891.77
2018-06-19T13:01:34.392Z,55878.41
2018-06-19T13:05:20.754Z,55913.36
2018-06-19T13:07:50.129Z,55914.39
2018-06-19T13:10:19.543Z,55898.97
2018-06-19T13:13:32.475Z,55892.80
2018-06-19T13:16:01.872Z,55913.36
2018-06-19T13:18:48.343Z,55915.42
2018-06-19T13:21:17.755Z,55870.18
2018-06-19T13:23:47.177Z,55903.08
2018-06-19T13:26:16.641Z,55898.97
2018-06-19T13:30:08.670Z,55894.86
2018-06-19T13:32:38.845Z,55890.75
2018-06-19T13:35:08.046Z,55892.80
2018-06-19T13:37:37.518Z,55907.20
2018-06-19T13:41:23.249Z,55892.80
2018-06-19T13:44:12.358Z,55912.34
2018-06-19T13:46:42.244Z,55915.42
2018-06-19T13:49:11.651Z,55916.45
2018-06-19T13:51:41.035Z,55898.97
2018-06-19T13:54:10.483Z,55886.63
2018-06-19T13:57:33.567Z,55877.38
2018-06-19T14:00:05.154Z,55892.80
2018-06-19T14:02:34.620Z,55915.42
2018-06-19T14:05:04.448Z,55892.80
2018-06-19T14:07:39.464Z,55893.83
2018-06-19T14:10:31.679Z,55888.69
2018-06-19T14:13:02.051Z,55912.34
2018-06-19T14:15:39.092Z,55907.20
2018-06-19T14:18:09.074Z,55892.80
2018-06-19T14:20:39.016Z,55896.91
2018-06-19T14:23:08.461Z,55873.27
2018-06-19T14:25:37.951Z,55923.65
2018-06-19T14:28:07.382Z,55908.23
2018-06-19T14:30:36.765Z,55904.11
2018-06-19T14:33:06.328Z,55893.83
2018-06-19T14:35:35.794Z,55929.82
2018-06-19T14:38:05.176Z,55892.80
2018-06-19T14:40:34.668Z,55897.94
2018-06-19T14:43:04.066Z,55906.17
2018-06-19T14:45:33.515Z,55883.55
2018-06-19T14:48:02.961Z,55886.63
2018-06-19T14:50:32.356Z,55894.86
2018-06-19T14:53:01.775Z,55909.25
2018-06-19T14:55:31.192Z,55932.90
2018-06-19T14:58:00.574Z,55912.34
2018-06-19T15:00:30.071Z,55897.94
2018-06-19T15:02:59.684Z,55901.03
2018-06-19T15:05:29.100Z,55896.91
2018-06-19T15:07:58.515Z,55932.90
2018-06-19T15:10:27.916Z,55912.34
2018-06-19T15:12:57.402Z,55909.25
2018-06-19T15:15:26.753Z,55923.65
2018-06-19T15:17:56.207Z,55915.42
2018-06-19T15:20:25.602Z,55923.65
2018-06-19T15:22:55.043Z,55896.91
2018-06-19T15:25:24.555Z,55902.05
2018-06-19T15:27:54.007Z,55922.62
2018-06-19T15:30:23.357Z,55882.52
2018-06-19T15:32:52.760Z,55897.94
2018-06-19T15:35:22.181Z,55913.36
2018-06-19T15:37:51.590Z,55911.31
2018-06-19T15:40:21.044Z,55925.70
2018-06-19T15:42:50.500Z,55919.54
2018-06-19T15:45:19.948Z,55927.76
2018-06-19T15:47:49.317Z,55908.23
2018-06-19T15:50:18.737Z,55923.65
2018-06-19T15:52:48.196Z,55915.42
2018-06-19T15:55:17.643Z,55900.00
2018-06-19T15:57:47.016Z,55913.36
2018-06-19T16:00:16.391Z,55923.65
2018-06-19T16:02:45.844Z,55923.65
2018-06-19T16:05:15.244Z,55943.18
2018-06-19T16:07:49.804Z,55935.98
2018-06-19T16:10:19.276Z,55927.76
2018-06-19T16:12:48.751Z,55929.82
2018-06-19T16:15:18.124Z,55938.04
2018-06-19T16:17:47.631Z,55922.62
2018-06-19T16:20:17.083Z,55948.32
2018-06-19T16:22:46.700Z,55917.48
2018-06-19T16:25:16.263Z,55938.04
2018-06-19T16:27:45.723Z,55948.32
2018-06-19T16:30:15.124Z,55949.35
2018-06-19T16:32:44.599Z,55921.59
2018-06-19T16:35:14.055Z,55913.36
2018-06-19T16:37:43.540Z,55934.96
2018-06-19T16:40:12.936Z,55938.04
2018-06-19T16:42:42.521Z,55909.25
2018-06-19T16:45:11.969Z,55940.10
2018-06-19T16:47:41.439Z,55915.42
2018-06-19T16:50:10.901Z,55925.70
2018-06-19T16:52:40.353Z,55931.87
2018-06-19T16:55:09.901Z,55925.70
2018-06-19T16:57:39.372Z,55953.46
2018-06-19T17:00:08.849Z,55911.31
2018-06-19T17:02:38.629Z,55942.16
2018-06-19T17:05:08.105Z,55912.34
2018-06-19T17:07:40.934Z,55910.28
2018-06-19T17:10:10.787Z,55919.54
2018-06-19T17:12:40.299Z,55924.68
2018-06-19T17:15:09.763Z,55938.04
2018-06-19T17:17:39.343Z,55937.01
2018-06-19T17:20:08.963Z,55928.79
2018-06-19T17:22:38.443Z,55911.31
2018-06-19T17:25:07.955Z,55920.56
2018-06-19T17:27:37.390Z,55944.21
2018-06-19T17:30:06.587Z,55934.96
2018-06-19T17:32:35.990Z,55931.87
2018-06-19T17:35:05.385Z,55949.35
2018-06-19T17:37:34.913Z,55949.35
2018-06-19T17:40:04.354Z,55901.03
2018-06-19T17:42:33.715Z,55931.87
2018-06-19T17:45:03.239Z,56061.43
2018-06-19T17:47:32.665Z,55927.76
2018-06-19T17:50:02.095Z,55921.59
2018-06-19T17:52:31.586Z,55927.76
2018-06-19T17:55:01.189Z,55935.98
2018-06-19T17:57:30.695Z,55919.54
2018-06-19T18:00:00.150Z,55923.65
2018-06-19T18:02:29.552Z,55903.08
2018-06-19T18:04:58.914Z,55945.24
2018-06-19T18:07:28.357Z,55931.87
2018-06-19T18:09:57.812Z,55950.38
2018-06-19T18:12:27.238Z,55944.21
2018-06-19T18:14:56.611Z,55927.76
2018-06-19T18:17:26.094Z,55959.63
2018-06-19T18:19:55.452Z,55956.55
2018-06-19T18:22:24.840Z,55916.45
2018-06-19T18:24:54.289Z,55944.21
2018-06-19T18:27:23.713Z,55958.61
2018-06-19T18:29:53.131Z,55970.95
2018-06-19T18:32:22.616Z,55962.72
2018-06-19T18:34:52.027Z,55942.16
2018-06-19T18:37:21.470Z,55957.58
2018-06-19T18:39:50.926Z,55946.27
2018-06-19T18:42:20.384Z,55941.13
2018-06-19T18:44:49.885Z,55960.66
2018-06-19T18:47:19.314Z,55965.80
2018-06-19T18:49:48.751Z,55978.14
2018-06-19T18:52:18.113Z,55961.69
2018-06-19T18:54:47.613Z,55977.11
2018-06-19T18:57:17.067Z,55964.78
2018-06-19T18:59:46.455Z,55982.25
2018-06-19T19:02:15.995Z,55934.96
2018-06-19T19:04:45.446Z,55958.61
2018-06-19T19:07:14.947Z,55956.55
2018-06-19T19:09:49.596Z,55950.38
2018-06-19T19:12:19.035Z,55970.95
2018-06-19T19:14:53.616Z,55975.06
2018-06-19T19:17:28.198Z,55970.95
2018-06-19T19:19:57.624Z,55954.49
2018-06-19T19:22:27.188Z,55960.66
2018-06-19T19:24:56.644Z,55967.86
2018-06-19T19:27:31.353Z,55989.45
2018-06-19T19:30:00.769Z,55976.09
2018-06-19T19:32:30.272Z,55987.40
2018-06-19T19:34:59.689Z,55962.72
2018-06-19T19:37:34.431Z,55966.83
2018-06-19T19:40:03.870Z,55973.00
2018-06-19T19:42:33.282Z,55951.41
2018-06-19T19:45:02.756Z,55982.25
2018-06-19T19:47:37.496Z,55981.23
2018-06-19T19:50:06.933Z,55982.25
2018-06-19T19:52:36.419Z,55979.17
2018-06-19T19:55:06.042Z,55973.00
2018-06-19T19:57:40.728Z,55993.57
2018-06-19T20:00:11.968Z,55983.28
2018-06-19T20:02:41.501Z,55996.65
2018-06-19T20:05:11.031Z,55989.45
2018-06-19T20:07:40.977Z,55974.03
2018-06-19T20:10:10.420Z,55967.86
2018-06-19T20:12:39.872Z,55946.27
2018-06-19T20:15:09.310Z,55958.61
2018-06-19T20:17:38.755Z,55973.00
2018-06-19T20:20:10.382Z,55997.68
2018-06-19T20:22:40.600Z,55987.40
2018-06-19T20:25:10.699Z,56007.96
2018-06-19T20:27:40.263Z,55995.62
2018-06-19T20:30:10.301Z,56001.79
2018-06-19T20:32:40.009Z,55966.83
2018-06-19T20:38:06.799Z,56010.02
2018-06-19T20:40:36.253Z,55994.59
2018-06-19T20:43:05.633Z,55988.43
2018-06-19T20:45:35.119Z,55960.66
2018-06-19T20:48:04.600Z,55999.73
2018-06-19T20:50:33.993Z,55991.51
2018-06-19T20:53:03.398Z,55988.43
2018-06-19T20:55:33.161Z,55997.68
2018-06-19T20:58:02.590Z,55991.51
2018-06-19T21:00:32.002Z,55961.69
2018-06-19T21:03:01.501Z,55997.68
2018-06-19T21:05:31.032Z,55996.65
2018-06-19T21:08:00.485Z,56010.02
2018-06-19T21:10:29.957Z,55983.28
2018-06-19T21:12:59.410Z,56028.52
2018-06-19T21:15:28.998Z,55987.40
2018-06-19T21:17:58.541Z,55948.32
2018-06-19T21:20:28.021Z,55965.80
2018-06-19T21:22:57.557Z,55985.34
2018-06-19T21:25:26.968Z,55994.59
2018-06-19T21:27:56.399Z,55995.62
2018-06-19T21:30:25.838Z,55986.37
2018-06-19T21:32:55.279Z,55996.65
2018-06-19T21:35:24.704Z,55992.54
2018-06-19T21:37:54.151Z,56010.02
2018-06-19T21:40:23.606Z,56006.93
2018-06-19T21:42:53.012Z,56013.10
2018-06-19T21:45:22.592Z,55995.62
2018-06-19T21:47:52.104Z,55984.31
2018-06-19T21:50:21.562Z,56018.24
2018-06-19T21:52:51.143Z,55989.45
2018-06-19T21:55:20.900Z,55987.40
2018-06-19T21:57:50.363Z,56038.81
2018-06-19T22:00:19.786Z,56006.93
2018-06-19T22:02:49.254Z,56012.07
2018-06-19T22:05:18.735Z,56038.81
2018-06-19T22:07:48.189Z,55989.45
2018-06-19T22:10:17.633Z,55998.71
2018-06-19T22:12:47.083Z,55985.34
2018-06-19T22:15:16.527Z,55990.48
2018-06-19T22:17:46.052Z,55997.68
2018-06-19T22:20:15.476Z,56003.85
2018-06-19T22:22:44.975Z,56020.30
2018-06-19T22:25:14.392Z,56001.79
2018-06-19T22:27:43.826Z,55965.80
2018-06-19T22:30:13.306Z,55985.34
2018-06-19T22:32:42.777Z,56012.07
2018-06-19T22:35:12.212Z,56029.55
2018-06-19T22:37:41.705Z,56003.85
2018-06-19T22:40:11.137Z,56017.21
2018-06-19T22:42:40.624Z,56001.79
2018-06-19T22:45:09.944Z,55995.62
2018-06-19T22:47:39.744Z,55998.71
2018-06-19T22:50:09.217Z,55990.48
2018-06-19T22:52:38.651Z,56024.41
2018-06-19T22:55:08.243Z,55983.28
2018-06-19T22:57:37.744Z,56012.07
2018-06-19T23:00:07.290Z,56003.85
2018-06-19T23:02:36.719Z,56000.76
2018-06-19T23:05:06.326Z,56024.41
2018-06-19T23:07:35.741Z,55997.68
2018-06-19T23:10:05.568Z,55983.28
2018-06-19T23:12:35.107Z,55980.20
2018-06-19T23:15:04.746Z,56000.76
2018-06-19T23:17:34.364Z,55997.68
2018-06-19T23:20:03.920Z,55999.73
2018-06-19T23:22:33.506Z,55994.59
2018-06-19T23:25:03.089Z,56016.19
2018-06-19T23:27:32.699Z,56001.79
2018-06-19T23:30:02.191Z,55989.45
2018-06-19T23:32:31.803Z,56003.85
2018-06-19T23:35:01.389Z,56003.85
2018-06-19T23:37:30.852Z,56003.85
2018-06-19T23:40:00.245Z,56016.19
2018-06-19T23:42:29.630Z,56001.79
2018-06-19T23:44:59.196Z,56008.99
2018-06-19T23:47:28.598Z,55995.62
2018-06-19T23:49:58.123Z,55999.73
2018-06-19T23:52:27.681Z,56005.90
2018-06-19T23:54:57.180Z,56017.21
2018-06-19T23:57:26.668Z,56002.82
2018-06-19T23:59:56.202Z,55970.95
